• Join FlightAware (Why Join?)
  • Login
  • US Flag 
03:19AM EDT


 

Airport Tracker/Info


-or-


 

Live Flight TrackerFlight Track Log ✈ CPT8773 ✈ 26-Jul-2013 ✈ KCPR - KCOD

Flight Track Log - Related Links

Times and Time Zones

All times are in EDT time to prevent confusion due to time zone crossing. See the CPT8773 flight status page for this flight to view local times or setup timezone preferences in your user account.

Time Position Orientation Groundspeed Altitude Reporting Facility
EDT Latitude Longitude Course Direction KTS MPH feet Rate Location/Type
09:02AM 42.9611 -106.4947 308° West 117 135 7,400  Level Denver Center
09:03AM 42.9947 -106.4978 356° North 120 138 7,900 540 Climbing Denver Center
09:04AM 43.0347 -106.5014 356° North 125 144 8,600 600 Climbing Denver Center
09:05AM 43.0683 -106.5019 359° North 126 145 9,200 540 Climbing Denver Center
09:06AM 43.0860 -106.2714 308° West  Level FlightAware Approximate
09:06AM 43.1081 -106.5050 357° North 127 146 9,800  Level Denver Center
09:07AM 43.1099 -106.3130 308° West  Level FlightAware Approximate
09:07AM 43.1406 -106.5069 358° North 125 144 10,400  Level Denver Center
09:08AM 43.1711 -106.5122 353° North 122 140 10,900 480 Climbing Denver Center
09:09AM 43.2081 -106.5161 356° North 120 138 11,500 480 Climbing Denver Center
09:10AM 43.2325 -106.5419 322° Northwest 120 138 11,900 240 Climbing Denver Center
09:11AM 43.2506 -106.5803 303° West 123 142 12,000  Climbing Denver Center
09:12AM 43.2772 -106.6300 306° West 141 162 12,000  Level Denver Center
09:13AM 43.3011 -106.6750 306° West 149 171 12,000  Level Denver Center
09:14AM 43.3239 -106.7178 306° West 148 170 12,000  Level Denver Center
09:15AM 43.3503 -106.7700 305° West 149 171 12,000  Level Denver Center
09:16AM 43.3744 -106.8125 308° West 147 169 12,000  Level Denver Center
09:17AM 43.4014 -106.8636 306° West 148 170 12,000 -60 Level Denver Center
09:18AM 43.4211 -106.9008 306° West 145 167 11,900  Descending Denver Center
09:19AM 43.4444 -106.9450 306° West 144 166 12,000  Climbing Denver Center
09:20AM 43.4728 -107.0014 305° West 149 171 12,000 -60 Level Denver Center
09:21AM 43.4922 -107.0389 306° West 150 173 11,900  Descending Denver Center
09:22AM 43.5200 -107.0953 304° West 150 173 12,000  Climbing Denver Center
09:23AM 43.5386 -107.1325 305° West 147 169 12,000  Level Salt Lake Center
09:24AM 43.5622 -107.1758 307° West 144 166 12,000  Level Salt Lake Center
09:25AM 43.5847 -107.2206 305° West 143 165 12,000  Level Salt Lake Center
09:26AM 43.6111 -107.2742 304° West 141 162 12,100  Climbing Salt Lake Center
09:27AM 43.6358 -107.3181 308° West 143 165 12,000  Descending Salt Lake Center
09:28AM 43.6600 -107.3644 306° West 148 170 12,100  Climbing Salt Lake Center
09:29AM 43.6828 -107.4097 305° West 145 167 12,000 -60 Descending Salt Lake Center
09:30AM 43.7072 -107.4536 308° West 145 167 12,000  Level Salt Lake Center
09:31AM 43.7303 -107.4992 305° West 145 167 12,100  Climbing Salt Lake Center
09:32AM 43.7517 -107.5442 303° West 143 165 12,000  Descending Salt Lake Center
09:33AM 43.7761 -107.5914 306° West 146 168 12,100  Climbing Salt Lake Center
09:34AM 43.8006 -107.6372 306° West 148 170 12,100 -60 Level Salt Lake Center
09:35AM 43.8242 -107.6844 305° West 148 170 12,000  Descending Salt Lake Center
09:36AM 43.8481 -107.7308 306° West 149 171 12,100  Climbing Salt Lake Center
09:37AM 43.8769 -107.7856 306° West 148 170 12,000 -60 Descending Salt Lake Center
09:38AM 43.9003 -107.8314 305° West 147 169 12,000  Level Salt Lake Center
09:39AM 43.9250 -107.8789 306° West 149 171 12,000  Level Salt Lake Center
09:40AM 43.9492 -107.9281 304° West 151 174 12,100  Climbing Salt Lake Center
09:41AM 43.9742 -107.9750 307° West 152 175 12,000  Descending Salt Lake Center
09:42AM 44.0039 -108.0175 314° West 153 176 12,100  Climbing Salt Lake Center
09:43AM 44.0328 -108.0606 313° West 153 176 12,000 -60 Descending Salt Lake Center
09:44AM 44.0614 -108.1033 313° West 153 176 12,000  Level Salt Lake Center
09:45AM 44.0903 -108.1467 313° West 152 175 12,000  Level Salt Lake Center
09:46AM 44.1242 -108.2000 312° West 153 176 12,000  Level Salt Lake Center
09:47AM 44.1528 -108.2442 312° West 153 176 12,000  Level Salt Lake Center
09:48AM 44.1811 -108.2875 312° West 153 176 12,000  Level Salt Lake Center
09:50AM 44.2094 -108.3314 312° West 152 175 12,000  Level Salt Lake Center
09:51AM 44.2386 -108.3753 313° West 153 176 12,000  Level Salt Lake Center
09:52AM 44.2681 -108.4206 312° West 155 178 12,000  Level Salt Lake Center
09:53AM 44.2972 -108.4656 312° West 156 180 12,000  Level Salt Lake Center
09:54AM 44.3258 -108.5103 312° West 155 178 12,000  Level Salt Lake Center